Time,TemperatureF,DewpointF,PressureIn,WindDirection,WindDirectionDegrees,WindSpeedMPH,WindSpeedGustMPH,Humidity,HourlyPrecipIn,Conditions,Clouds,dailyrainin,SoftwareType,DateUTC
2013-12-30 00:01:00,22.6,19.6,30.14,ENE,59,2.0,4.0,88,0.00,,,0.00,Wunderground v.1.15,2013-12-30 05:01:00,
2013-12-30 00:05:00,22.6,19.6,30.14,East,89,3.0,4.0,88,0.00,,,0.00,Wunderground v.1.15,2013-12-30 05:05:00,
2013-12-30 00:10:00,22.6,19.6,30.15,East,84,2.0,6.0,88,0.00,,,0.00,Wunderground v.1.15,2013-12-30 05:10:00,
2013-12-30 00:15:00,22.5,19.5,30.15,East,86,2.0,6.0,88,0.00,,,0.00,Wunderground v.1.15,2013-12-30 05:15:00,
2013-12-30 00:20:00,22.5,19.5,30.15,East,89,2.0,2.0,88,0.00,,,0.00,Wunderground v.1.15,2013-12-30 05:20:00,
2013-12-30 00:25:00,22.4,19.1,30.15,NE,46,2.0,4.0,87,0.00,,,0.00,Wunderground v.1.15,2013-12-30 05:25:00,
2013-12-30 00:30:00,22.4,18.8,30.15,East,84,3.0,3.0,86,0.00,,,0.00,Wunderground v.1.15,2013-12-30 05:30:00,
2013-12-30 00:40:00,22.1,18.6,30.15,ENE,78,3.0,3.0,86,0.00,,,0.00,Wunderground v.1.15,2013-12-30 05:40:00,
2013-12-30 00:45:00,22.1,18.6,30.15,East,80,2.0,5.0,86,0.00,,,0.00,Wunderground v.1.15,2013-12-30 05:45:00,
2013-12-30 00:50:00,22.0,18.5,30.15,ENE,63,2.0,10.0,86,0.00,,,0.00,Wunderground v.1.15,2013-12-30 05:50:00,
2013-12-30 01:00:00,21.7,18.2,30.15,ENE,70,3.0,10.0,86,0.00,,,0.00,Wunderground v.1.15,2013-12-30 06:00:00,
2013-12-30 01:05:00,21.6,18.1,30.16,NNW,343,3.0,10.0,86,0.00,,,0.00,Wunderground v.1.15,2013-12-30 06:05:00,
2013-12-30 01:15:00,21.3,17.5,30.16,ENE,58,3.0,10.0,85,0.00,,,0.00,Wunderground v.1.15,2013-12-30 06:15:00,
2013-12-30 01:20:00,21.1,17.3,30.16,East,91,3.0,3.0,85,0.00,,,0.00,Wunderground v.1.15,2013-12-30 06:20:00,
2013-12-30 01:25:00,21.1,17.6,30.16,ENE,60,3.0,7.0,86,0.00,,,0.00,Wunderground v.1.15,2013-12-30 06:25:00,
2013-12-30 01:30:00,21.0,17.7,30.17,SW,214,3.0,3.0,87,0.00,,,0.00,Wunderground v.1.15,2013-12-30 06:30:00,
2013-12-30 01:35:00,20.9,17.4,30.17,East,84,3.0,10.0,86,0.00,,,0.00,Wunderground v.1.15,2013-12-30 06:35:00,
2013-12-30 01:45:00,20.7,17.4,30.18,NNE,29,2.0,10.0,87,0.00,,,0.00,Wunderground v.1.15,2013-12-30 06:45:00,
2013-12-30 01:50:00,20.5,17.0,30.18,East,97,3.0,3.0,86,0.00,,,0.00,Wunderground v.1.15,2013-12-30 06:50:00,
2013-12-30 01:55:00,20.3,16.8,30.18,East,83,4.0,4.0,86,0.00,,,0.00,Wunderground v.1.15,2013-12-30 06:55:00,
2013-12-30 02:00:00,20.3,16.8,30.19,East,85,3.0,3.0,86,0.00,,,0.00,Wunderground v.1.15,2013-12-30 07:00:00,
2013-12-30 02:05:00,20.1,16.6,30.19,North,9,3.0,5.0,86,0.00,,,0.00,Wunderground v.1.15,2013-12-30 07:05:00,
2013-12-30 02:10:00,19.9,16.4,30.19,NE,41,5.0,11.0,86,0.00,,,0.00,Wunderground v.1.15,2013-12-30 07:10:00,
2013-12-30 02:20:00,19.6,15.8,30.19,East,84,3.0,3.0,85,0.00,,,0.00,Wunderground v.1.15,2013-12-30 07:20:00,
2013-12-30 02:25:00,19.6,16.1,30.20,East,82,2.0,4.0,86,0.00,,,0.00,Wunderground v.1.15,2013-12-30 07:25:00,
2013-12-30 02:30:00,19.4,15.4,30.20,NW,307,3.0,3.0,84,0.00,,,0.00,Wunderground v.1.15,2013-12-30 07:30:00,
2013-12-30 02:35:00,19.2,14.9,30.20,East,91,3.0,4.0,83,0.00,,,0.00,Wunderground v.1.15,2013-12-30 07:35:00,
2013-12-30 02:40:00,19.1,14.8,30.21,East,85,3.0,10.0,83,0.00,,,0.00,Wunderground v.1.15,2013-12-30 07:40:00,
2013-12-30 02:45:00,19.0,14.7,30.21,ENE,63,3.0,10.0,83,0.00,,,0.00,Wunderground v.1.15,2013-12-30 07:45:00,
2013-12-30 02:55:00,18.9,14.0,30.21,NNE,18,4.0,10.0,81,0.00,,,0.00,Wunderground v.1.15,2013-12-30 07:55:00,
2013-12-30 03:01:00,18.9,14.0,30.22,East,83,4.0,4.0,81,0.00,,,0.00,Wunderground v.1.15,2013-12-30 08:01:00,
2013-12-30 03:10:00,18.8,13.9,30.22,East,85,3.0,8.0,81,0.00,,,0.00,Wunderground v.1.15,2013-12-30 08:10:00,
2013-12-30 03:15:00,18.8,13.9,30.23,NNE,24,3.0,11.0,81,0.00,,,0.00,Wunderground v.1.15,2013-12-30 08:15:00,
2013-12-30 03:20:00,18.8,13.7,30.22,East,86,3.0,11.0,80,0.00,,,0.00,Wunderground v.1.15,2013-12-30 08:20:00,
2013-12-30 03:30:00,18.6,13.7,30.23,ENE,60,4.0,4.0,81,0.00,,,0.00,Wunderground v.1.15,2013-12-30 08:30:00,
2013-12-30 03:35:00,18.5,13.6,30.23,NNE,26,3.0,17.0,81,0.00,,,0.00,Wunderground v.1.15,2013-12-30 08:35:00,
2013-12-30 03:40:00,18.4,13.5,30.23,East,85,3.0,17.0,81,0.00,,,0.00,Wunderground v.1.15,2013-12-30 08:40:00,
2013-12-30 03:50:00,18.2,13.3,30.23,ENE,76,2.0,17.0,81,0.00,,,0.00,Wunderground v.1.15,2013-12-30 08:50:00,
2013-12-30 03:55:00,18.0,13.4,30.23,ENE,58,2.0,17.0,82,0.00,,,0.00,Wunderground v.1.15,2013-12-30 08:55:00,
2013-12-30 04:05:00,17.8,13.5,30.23,ENE,77,5.0,5.0,83,0.00,,,0.00,Wunderground v.1.15,2013-12-30 09:05:00,
2013-12-30 04:10:00,17.7,13.4,30.24,NNE,27,4.0,17.0,83,0.00,,,0.00,Wunderground v.1.15,2013-12-30 09:10:00,
2013-12-30 04:15:00,17.5,13.2,30.23,East,91,4.0,17.0,83,0.00,,,0.00,Wunderground v.1.15,2013-12-30 09:15:00,
2013-12-30 04:20:00,17.4,13.4,30.24,NE,46,5.0,17.0,84,0.00,,,0.00,Wunderground v.1.15,2013-12-30 09:20:00,
2013-12-30 04:25:00,17.3,13.3,30.24,East,93,5.0,17.0,84,0.00,,,0.00,Wunderground v.1.15,2013-12-30 09:25:00,
2013-12-30 04:30:00,17.2,13.2,30.24,North,6,4.0,17.0,84,0.00,,,0.00,Wunderground v.1.15,2013-12-30 09:30:00,
2013-12-30 04:35:00,17.2,13.2,30.24,East,89,4.0,17.0,84,0.00,,,0.00,Wunderground v.1.15,2013-12-30 09:35:00,
2013-12-30 04:40:00,17.3,13.6,30.24,East,89,3.0,3.0,85,0.00,,,0.00,Wunderground v.1.15,2013-12-30 09:40:00,
2013-12-30 04:50:00,17.4,13.7,30.25,East,99,3.0,3.0,85,0.00,,,0.00,Wunderground v.1.15,2013-12-30 09:50:00,
2013-12-30 04:55:00,17.3,13.6,30.25,East,85,4.0,4.0,85,0.00,,,0.00,Wunderground v.1.15,2013-12-30 09:55:00,
2013-12-30 05:00:00,17.3,13.6,30.25,NNW,333,4.0,4.0,85,0.00,,,0.00,Wunderground v.1.15,2013-12-30 10:00:00,
2013-12-30 05:05:00,17.3,13.6,30.25,East,97,2.0,17.0,85,0.00,,,0.00,Wunderground v.1.15,2013-12-30 10:05:00,
2013-12-30 05:10:00,17.1,13.4,30.25,North,7,2.0,17.0,85,0.00,,,0.00,Wunderground v.1.15,2013-12-30 10:10:00,
2013-12-30 05:15:00,17.1,13.4,30.24,East,89,3.0,17.0,85,0.00,,,0.00,Wunderground v.1.15,2013-12-30 10:15:00,
2013-12-30 05:20:00,17.1,13.6,30.25,East,91,2.0,2.0,86,0.00,,,0.00,Wunderground v.1.15,2013-12-30 10:20:00,
2013-12-30 05:25:00,17.1,13.4,30.25,WSW,238,2.0,17.0,85,0.00,,,0.00,Wunderground v.1.15,2013-12-30 10:25:00,
2013-12-30 05:30:00,17.0,13.3,30.25,East,84,2.0,2.0,85,0.00,,,0.00,Wunderground v.1.15,2013-12-30 10:30:00,
2013-12-30 05:35:00,17.0,13.3,30.25,ENE,73,1.0,17.0,85,0.00,,,0.00,Wunderground v.1.15,2013-12-30 10:35:00,
2013-12-30 05:45:00,16.8,13.1,30.25,East,82,4.0,17.0,85,0.00,,,0.00,Wunderground v.1.15,2013-12-30 10:45:00,
2013-12-30 05:50:00,16.6,12.9,30.25,ESE,103,4.0,17.0,85,0.00,,,0.00,Wunderground v.1.15,2013-12-30 10:50:00,
2013-12-30 06:00:00,16.3,12.6,30.26,ENE,65,5.0,5.0,85,0.00,,,0.00,Wunderground v.1.15,2013-12-30 11:00:00,
2013-12-30 06:05:00,16.2,12.5,30.26,East,86,4.0,17.0,85,0.00,,,0.00,Wunderground v.1.15,2013-12-30 11:05:00,
2013-12-30 06:10:00,16.1,12.4,30.27,East,82,3.0,3.0,85,0.00,,,0.00,Wunderground v.1.15,2013-12-30 11:10:00,
2013-12-30 06:15:00,16.0,12.6,30.27,North,5,4.0,7.0,86,0.00,,,0.00,Wunderground v.1.15,2013-12-30 11:15:00,
2013-12-30 06:20:00,15.9,12.5,30.27,ENE,75,3.0,17.0,86,0.00,,,0.00,Wunderground v.1.15,2013-12-30 11:20:00,
2013-12-30 06:25:00,15.7,12.3,30.27,East,85,3.0,17.0,86,0.00,,,0.00,Wunderground v.1.15,2013-12-30 11:25:00,
2013-12-30 06:30:00,15.5,12.1,30.27,East,85,2.0,17.0,86,0.00,,,0.00,Wunderground v.1.15,2013-12-30 11:30:00,
2013-12-30 06:35:00,15.4,12.0,30.28,SE,124,3.0,17.0,86,0.00,,,0.00,Wunderground v.1.15,2013-12-30 11:35:00,
2013-12-30 06:40:00,15.2,12.0,30.28,ENE,57,4.0,4.0,87,0.00,,,0.00,Wunderground v.1.15,2013-12-30 11:40:00,
2013-12-30 06:45:00,15.2,12.0,30.29,North,354,4.0,17.0,87,0.00,,,0.00,Wunderground v.1.15,2013-12-30 11:45:00,
2013-12-30 06:55:00,15.3,12.1,30.29,ENE,78,4.0,17.0,87,0.00,,,0.00,Wunderground v.1.15,2013-12-30 11:55:00,
2013-12-30 07:01:00,15.2,12.0,30.29,East,85,5.0,5.0,87,0.00,,,0.00,Wunderground v.1.15,2013-12-30 12:01:00,
2013-12-30 07:10:00,15.1,11.7,30.30,NNE,12,5.0,8.0,86,0.00,,,0.00,Wunderground v.1.15,2013-12-30 12:10:00,
2013-12-30 07:15:00,14.9,11.5,30.30,NNE,16,5.0,8.0,86,0.00,,,0.00,Wunderground v.1.15,2013-12-30 12:15:00,
2013-12-30 07:20:00,14.9,11.7,30.31,SW,229,5.0,8.0,87,0.00,,,0.00,Wunderground v.1.15,2013-12-30 12:20:00,
2013-12-30 07:30:00,14.8,11.4,30.31,NNE,12,6.0,13.0,86,0.00,,,0.00,Wunderground v.1.15,2013-12-30 12:30:00,
2013-12-30 07:40:00,14.7,11.3,30.32,ENE,65,6.0,6.0,86,0.00,,,0.00,Wunderground v.1.15,2013-12-30 12:40:00,
2013-12-30 07:45:00,14.6,11.2,30.32,NE,46,4.0,10.0,86,0.00,,,0.00,Wunderground v.1.15,2013-12-30 12:45:00,
2013-12-30 07:50:00,14.4,11.0,30.32,East,87,3.0,10.0,86,0.00,,,0.00,Wunderground v.1.15,2013-12-30 12:50:00,
2013-12-30 07:55:00,14.2,11.0,30.32,East,87,4.0,10.0,87,0.00,,,0.00,Wunderground v.1.15,2013-12-30 12:55:00,
2013-12-30 08:05:00,14.0,10.8,30.32,NNE,14,5.0,10.0,87,0.00,,,0.00,Wunderground v.1.15,2013-12-30 13:05:00,
2013-12-30 08:10:00,14.0,10.8,30.32,ESE,107,5.0,5.0,87,0.00,,,0.00,Wunderground v.1.15,2013-12-30 13:10:00,
2013-12-30 08:15:00,14.0,10.8,30.32,East,84,5.0,10.0,87,0.00,,,0.00,Wunderground v.1.15,2013-12-30 13:15:00,
2013-12-30 08:20:00,14.0,10.8,30.32,ENE,63,4.0,4.0,87,0.00,,,0.00,Wunderground v.1.15,2013-12-30 13:20:00,
2013-12-30 08:25:00,14.0,10.8,30.32,NE,46,2.0,10.0,87,0.00,,,0.00,Wunderground v.1.15,2013-12-30 13:25:00,
2013-12-30 08:35:00,14.2,11.0,30.32,NE,39,2.0,10.0,87,0.00,,,0.00,Wunderground v.1.15,2013-12-30 13:35:00,
2013-12-30 08:45:00,15.2,11.8,30.33,NE,39,1.0,10.0,86,0.00,,,0.00,Wunderground v.1.15,2013-12-30 13:45:00,
2013-12-30 08:50:00,15.6,11.9,30.33,NNE,29,2.0,10.0,85,0.00,,,0.00,Wunderground v.1.15,2013-12-30 13:50:00,
2013-12-30 08:55:00,15.8,11.8,30.33,NE,41,3.0,10.0,84,0.00,,,0.00,Wunderground v.1.15,2013-12-30 13:55:00,
2013-12-30 09:00:00,16.2,12.2,30.33,NE,44,3.0,3.0,84,0.00,,,0.00,Wunderground v.1.15,2013-12-30 14:00:00,
2013-12-30 09:05:00,16.6,12.3,30.33,NNE,20,3.0,6.0,83,0.00,,,0.00,Wunderground v.1.15,2013-12-30 14:05:00,
2013-12-30 09:15:00,17.2,12.9,30.33,ENE,74,3.0,10.0,83,0.00,,,0.00,Wunderground v.1.15,2013-12-30 14:15:00,
2013-12-30 09:20:00,17.4,12.8,30.33,ENE,74,2.0,10.0,82,0.00,,,0.00,Wunderground v.1.15,2013-12-30 14:20:00,
2013-12-30 09:25:00,17.5,12.7,30.33,NE,40,2.0,10.0,81,0.00,,,0.00,Wunderground v.1.15,2013-12-30 14:25:00,
2013-12-30 09:30:00,17.5,12.7,30.34,East,80,3.0,10.0,81,0.00,,,0.00,Wunderground v.1.15,2013-12-30 14:30:00,
2013-12-30 09:35:00,17.4,12.6,30.34,NE,43,3.0,10.0,81,0.00,,,0.00,Wunderground v.1.15,2013-12-30 14:35:00,
2013-12-30 09:45:00,17.5,12.7,30.34,NE,47,5.0,10.0,81,0.00,,,0.00,Wunderground v.1.15,2013-12-30 14:45:00,
2013-12-30 09:50:00,17.7,12.9,30.35,NE,43,4.0,10.0,81,0.00,,,0.00,Wunderground v.1.15,2013-12-30 14:50:00,
2013-12-30 09:55:00,17.7,12.9,30.35,North,4,4.0,10.0,81,0.00,,,0.00,Wunderground v.1.15,2013-12-30 14:55:00,
2013-12-30 10:01:00,17.7,12.9,30.35,NE,38,4.0,4.0,81,0.00,,,0.00,Wunderground v.1.15,2013-12-30 15:01:00,
2013-12-30 10:10:00,18.0,13.2,30.35,NE,43,5.0,5.0,81,0.00,,,0.00,Wunderground v.1.15,2013-12-30 15:10:00,
2013-12-30 10:20:00,18.8,13.7,30.35,East,82,4.0,4.0,80,0.00,,,0.00,Wunderground v.1.15,2013-12-30 15:20:00,
2013-12-30 10:30:00,20.1,14.6,30.35,East,91,1.0,1.0,79,0.00,,,0.00,Wunderground v.1.15,2013-12-30 15:30:00,
2013-12-30 10:35:00,20.6,14.2,30.36,North,11,2.0,11.0,76,0.00,,,0.00,Wunderground v.1.15,2013-12-30 15:35:00,
2013-12-30 10:40:00,19.9,13.9,30.35,NE,42,4.0,4.0,77,0.00,,,0.00,Wunderground v.1.15,2013-12-30 15:40:00,
2013-12-30 10:45:00,20.2,13.8,30.36,North,5,4.0,8.0,76,0.00,,,0.00,Wunderground v.1.15,2013-12-30 15:45:00,
2013-12-30 10:50:00,20.1,13.7,30.36,NE,43,4.0,4.0,76,0.00,,,0.00,Wunderground v.1.15,2013-12-30 15:50:00,
2013-12-30 11:00:00,20.4,14.0,30.36,NNE,20,4.0,8.0,76,0.00,,,0.00,Wunderground v.1.15,2013-12-30 16:00:00,
2013-12-30 11:05:00,20.2,13.5,30.36,NNE,31,5.0,8.0,75,0.00,,,0.00,Wunderground v.1.15,2013-12-30 16:05:00,
2013-12-30 11:10:00,20.1,13.7,30.36,ENE,76,5.0,5.0,76,0.00,,,0.00,Wunderground v.1.15,2013-12-30 16:10:00,
2013-12-30 11:15:00,21.0,14.6,30.36,NE,55,3.0,8.0,76,0.00,,,0.00,Wunderground v.1.15,2013-12-30 16:15:00,
2013-12-30 11:25:00,21.4,14.7,30.36,East,85,1.0,8.0,75,0.00,,,0.00,Wunderground v.1.15,2013-12-30 16:25:00,
2013-12-30 11:35:00,21.1,14.1,30.36,NE,39,3.0,8.0,74,0.00,,,0.00,Wunderground v.1.15,2013-12-30 16:35:00,
2013-12-30 11:40:00,21.3,14.0,30.36,East,85,3.0,8.0,73,0.00,,,0.00,Wunderground v.1.15,2013-12-30 16:40:00,
2013-12-30 11:45:00,20.9,13.3,30.36,NE,50,4.0,8.0,72,0.00,,,0.00,Wunderground v.1.15,2013-12-30 16:45:00,
2013-12-30 11:50:00,20.6,13.0,30.35,East,84,5.0,5.0,72,0.00,,,0.00,Wunderground v.1.15,2013-12-30 16:50:00,
2013-12-30 11:55:00,20.6,13.0,30.35,NNW,347,4.0,8.0,72,0.00,,,0.00,Wunderground v.1.15,2013-12-30 16:55:00,
2013-12-30 12:01:00,21.4,14.1,30.34,SE,124,2.0,4.0,73,0.00,,,0.00,Wunderground v.1.15,2013-12-30 17:01:00,
2013-12-30 12:10:00,21.3,13.4,30.33,East,82,4.0,4.0,71,0.00,,,0.00,Wunderground v.1.15,2013-12-30 17:10:00,
2013-12-30 12:15:00,21.3,12.4,30.33,East,82,2.0,4.0,68,0.00,,,0.00,Wunderground v.1.15,2013-12-30 17:15:00,
2013-12-30 12:20:00,21.0,12.4,30.33,East,82,2.0,2.0,69,0.00,,,0.00,Wunderground v.1.15,2013-12-30 17:20:00,
2013-12-30 12:25:00,21.1,13.2,30.33,East,82,2.0,2.0,71,0.00,,,0.00,Wunderground v.1.15,2013-12-30 17:25:00,
2013-12-30 12:30:00,21.2,13.3,30.33,East,85,1.0,2.0,71,0.00,,,0.00,Wunderground v.1.15,2013-12-30 17:30:00,
2013-12-30 12:35:00,21.5,13.5,30.33,East,84,1.0,11.0,71,0.00,,,0.00,Wunderground v.1.15,2013-12-30 17:35:00,
2013-12-30 12:45:00,20.8,11.9,30.32,NE,52,3.0,11.0,68,0.00,,,0.00,Wunderground v.1.15,2013-12-30 17:45:00,
2013-12-30 12:50:00,20.8,12.9,30.32,NNE,24,2.0,11.0,71,0.00,,,0.00,Wunderground v.1.15,2013-12-30 17:50:00,
2013-12-30 13:00:00,20.5,12.6,30.32,East,85,2.0,2.0,71,0.00,,,0.00,Wunderground v.1.15,2013-12-30 18:00:00,
2013-12-30 13:05:00,20.4,12.5,30.32,NE,44,3.0,3.0,71,0.00,,,0.00,Wunderground v.1.15,2013-12-30 18:05:00,
2013-12-30 13:10:00,20.2,12.3,30.32,WNW,296,3.0,11.0,71,0.00,,,0.00,Wunderground v.1.15,2013-12-30 18:10:00,
2013-12-30 13:20:00,19.7,11.8,30.31,NE,35,5.0,5.0,71,0.00,,,0.00,Wunderground v.1.15,2013-12-30 18:20:00,
2013-12-30 13:25:00,19.8,12.2,30.31,East,89,3.0,11.0,72,0.00,,,0.00,Wunderground v.1.15,2013-12-30 18:25:00,
2013-12-30 13:30:00,20.1,12.2,30.30,ENE,69,2.0,2.0,71,0.00,,,0.00,Wunderground v.1.15,2013-12-30 18:30:00,
2013-12-30 13:35:00,20.3,12.4,30.30,NNE,29,2.0,4.0,71,0.00,,,0.00,Wunderground v.1.15,2013-12-30 18:35:00,
2013-12-30 13:40:00,20.3,12.7,30.30,North,4,2.0,11.0,72,0.00,,,0.00,Wunderground v.1.15,2013-12-30 18:40:00,
2013-12-30 13:50:00,20.2,12.3,30.29,East,84,4.0,4.0,71,0.00,,,0.00,Wunderground v.1.15,2013-12-30 18:50:00,
2013-12-30 13:55:00,20.5,12.6,30.29,NNW,332,4.0,11.0,71,0.00,,,0.00,Wunderground v.1.15,2013-12-30 18:55:00,
2013-12-30 14:01:00,20.5,12.3,30.28,North,11,4.0,5.0,70,0.00,,,0.00,Wunderground v.1.15,2013-12-30 19:01:00,
2013-12-30 14:10:00,20.7,12.1,30.28,NNE,25,4.0,9.0,69,0.00,,,0.00,Wunderground v.1.15,2013-12-30 19:10:00,
2013-12-30 14:15:00,20.1,11.2,30.29,WNW,297,5.0,9.0,68,0.00,,,0.00,Wunderground v.1.15,2013-12-30 19:15:00,
2013-12-30 14:20:00,19.6,11.4,30.28,NW,316,7.0,7.0,70,0.00,,,0.00,Wunderground v.1.15,2013-12-30 19:20:00,
2013-12-30 14:30:00,19.6,11.4,30.28,NNW,332,4.0,5.0,70,0.00,,,0.00,Wunderground v.1.15,2013-12-30 19:30:00,
2013-12-30 14:35:00,19.6,11.7,30.28,NW,321,3.0,8.0,71,0.00,,,0.00,Wunderground v.1.15,2013-12-30 19:35:00,
2013-12-30 14:45:00,20.2,12.0,30.27,NE,39,5.0,5.0,70,0.00,,,0.00,Wunderground v.1.15,2013-12-30 19:45:00,
2013-12-30 14:50:00,19.9,11.7,30.27,NNE,16,6.0,6.0,70,0.00,,,0.00,Wunderground v.1.15,2013-12-30 19:50:00,
2013-12-30 14:55:00,20.0,12.1,30.27,NNW,329,5.0,7.0,71,0.00,,,0.00,Wunderground v.1.15,2013-12-30 19:55:00,
2013-12-30 15:05:00,19.7,11.8,30.27,East,87,4.0,8.0,71,0.00,,,0.00,Wunderground v.1.15,2013-12-30 20:05:00,
2013-12-30 15:10:00,20.0,12.7,30.27,North,357,3.0,8.0,73,0.00,,,0.00,Wunderground v.1.15,2013-12-30 20:10:00,
2013-12-30 15:15:00,19.9,12.3,30.27,NW,304,4.0,8.0,72,0.00,,,0.00,Wunderground v.1.15,2013-12-30 20:15:00,
2013-12-30 15:20:00,19.9,12.3,30.27,West,280,5.0,5.0,72,0.00,,,0.00,Wunderground v.1.15,2013-12-30 20:20:00,
2013-12-30 15:25:00,19.9,12.3,30.27,WNW,302,4.0,8.0,72,0.00,,,0.00,Wunderground v.1.15,2013-12-30 20:25:00,
2013-12-30 15:35:00,19.8,12.2,30.28,North,349,5.0,10.0,72,0.00,,,0.00,Wunderground v.1.15,2013-12-30 20:35:00,
2013-12-30 15:40:00,19.7,12.1,30.28,NW,308,6.0,6.0,72,0.00,,,0.00,Wunderground v.1.15,2013-12-30 20:40:00,
2013-12-30 15:50:00,19.9,12.3,30.28,North,5,4.0,8.0,72,0.00,,,0.00,Wunderground v.1.15,2013-12-30 20:50:00,
2013-12-30 15:55:00,19.7,11.8,30.28,NNW,346,5.0,8.0,71,0.00,,,0.00,Wunderground v.1.15,2013-12-30 20:55:00,
2013-12-30 16:01:00,19.5,11.6,30.27,NNW,336,6.0,6.0,71,0.00,,,0.00,Wunderground v.1.15,2013-12-30 21:01:00,
2013-12-30 16:10:00,19.6,12.3,30.28,WNW,282,4.0,6.0,73,0.00,,,0.00,Wunderground v.1.15,2013-12-30 21:10:00,
2013-12-30 16:15:00,19.7,12.4,30.28,NW,307,4.0,6.0,73,0.00,,,0.00,Wunderground v.1.15,2013-12-30 21:15:00,
2013-12-30 16:20:00,19.6,12.0,30.28,NNW,333,5.0,9.0,72,0.00,,,0.00,Wunderground v.1.15,2013-12-30 21:20:00,
2013-12-30 16:30:00,19.3,11.7,30.29,West,269,7.0,7.0,72,0.00,,,0.00,Wunderground v.1.15,2013-12-30 21:30:00,
2013-12-30 16:35:00,19.5,12.3,30.28,NW,308,5.0,10.0,73,0.00,,,0.00,Wunderground v.1.15,2013-12-30 21:35:00,
2013-12-30 16:40:00,19.6,12.3,30.28,ENE,58,4.0,10.0,73,0.00,,,0.00,Wunderground v.1.15,2013-12-30 21:40:00,
2013-12-30 16:50:00,19.4,12.2,30.29,WNW,298,5.0,10.0,73,0.00,,,0.00,Wunderground v.1.15,2013-12-30 21:50:00,
2013-12-30 16:55:00,19.4,12.5,30.29,NW,307,6.0,10.0,74,0.00,,,0.00,Wunderground v.1.15,2013-12-30 21:55:00,
2013-12-30 17:00:00,19.4,12.8,30.29,East,80,6.0,10.0,75,0.00,,,0.00,Wunderground v.1.15,2013-12-30 22:00:00,
2013-12-30 17:05:00,19.4,12.5,30.29,WNW,291,6.0,10.0,74,0.00,,,0.00,Wunderground v.1.15,2013-12-30 22:05:00,
2013-12-30 17:10:00,19.2,12.3,30.29,NW,304,7.0,10.0,74,0.00,,,0.00,Wunderground v.1.15,2013-12-30 22:10:00,
2013-12-30 17:20:00,19.0,12.4,30.29,NW,325,8.0,8.0,75,0.00,,,0.00,Wunderground v.1.15,2013-12-30 22:20:00,
2013-12-30 17:25:00,19.0,12.4,30.29,North,359,7.0,10.0,75,0.00,,,0.00,Wunderground v.1.15,2013-12-30 22:25:00,
2013-12-30 17:35:00,18.9,12.6,30.29,East,87,8.0,10.0,76,0.00,,,0.00,Wunderground v.1.15,2013-12-30 22:35:00,
2013-12-30 17:40:00,18.8,12.5,30.29,NE,41,8.0,10.0,76,0.00,,,0.00,Wunderground v.1.15,2013-12-30 22:40:00,
2013-12-30 17:45:00,18.6,12.0,30.29,East,82,6.0,10.0,75,0.00,,,0.00,Wunderground v.1.15,2013-12-30 22:45:00,
2013-12-30 17:55:00,18.5,12.2,30.29,East,90,7.0,10.0,76,0.00,,,0.00,Wunderground v.1.15,2013-12-30 22:55:00,
2013-12-30 18:01:00,18.4,12.4,30.29,NW,321,8.0,8.0,77,0.00,,,0.00,Wunderground v.1.15,2013-12-30 23:01:00,
2013-12-30 18:10:00,18.2,11.9,30.29,NNW,342,9.0,9.0,76,0.00,,,0.00,Wunderground v.1.15,2013-12-30 23:10:00,
2013-12-30 18:15:00,18.2,11.9,30.29,NW,322,9.0,11.0,76,0.00,,,0.00,Wunderground v.1.15,2013-12-30 23:15:00,
2013-12-30 18:20:00,18.1,12.1,30.29,NW,304,8.0,10.0,77,0.00,,,0.00,Wunderground v.1.15,2013-12-30 23:20:00,
2013-12-30 18:25:00,18.0,12.0,30.29,NW,326,9.0,10.0,77,0.00,,,0.00,Wunderground v.1.15,2013-12-30 23:25:00,
2013-12-30 18:30:00,17.9,12.2,30.29,NW,308,9.0,9.0,78,0.00,,,0.00,Wunderground v.1.15,2013-12-30 23:30:00,
2013-12-30 18:35:00,17.9,12.2,30.29,NNW,345,8.0,13.0,78,0.00,,,0.00,Wunderground v.1.15,2013-12-30 23:35:00,
2013-12-30 18:40:00,17.8,12.1,30.29,WNW,302,9.0,9.0,78,0.00,,,0.00,Wunderground v.1.15,2013-12-30 23:40:00,
2013-12-30 18:45:00,17.7,12.0,30.29,NW,321,9.0,13.0,78,0.00,,,0.00,Wunderground v.1.15,2013-12-30 23:45:00,
2013-12-30 18:50:00,17.5,12.1,30.29,North,358,9.0,13.0,79,0.00,,,0.00,Wunderground v.1.15,2013-12-30 23:50:00,
2013-12-30 18:55:00,17.4,11.7,30.29,NW,304,9.0,13.0,78,0.00,,,0.00,Wunderground v.1.15,2013-12-30 23:55:00,
2013-12-30 19:00:00,17.3,11.9,30.29,East,87,9.0,9.0,79,0.00,,,0.00,Wunderground v.1.15,2013-12-31 00:00:00,
2013-12-30 19:05:00,17.1,11.7,30.29,NW,304,9.0,10.0,79,0.00,,,0.00,Wunderground v.1.15,2013-12-31 00:05:00,
2013-12-30 19:10:00,17.1,12.0,30.29,WNW,293,8.0,13.0,80,0.00,,,0.00,Wunderground v.1.15,2013-12-31 00:10:00,
2013-12-30 19:20:00,16.9,11.8,30.29,NE,46,8.0,8.0,80,0.00,,,0.00,Wunderground v.1.15,2013-12-31 00:20:00,
2013-12-30 19:25:00,16.8,12.0,30.28,North,353,7.0,13.0,81,0.00,,,0.00,Wunderground v.1.15,2013-12-31 00:25:00,
2013-12-30 19:30:00,16.7,11.6,30.28,NNW,327,6.0,6.0,80,0.00,,,0.00,Wunderground v.1.15,2013-12-31 00:30:00,
2013-12-30 19:35:00,16.6,11.5,30.28,NW,308,7.0,9.0,80,0.00,,,0.00,Wunderground v.1.15,2013-12-31 00:35:00,
2013-12-30 19:40:00,16.4,11.3,30.28,WNW,299,8.0,13.0,80,0.00,,,0.00,Wunderground v.1.15,2013-12-31 00:40:00,
2013-12-30 19:45:00,16.3,11.5,30.28,NW,326,7.0,13.0,81,0.00,,,0.00,Wunderground v.1.15,2013-12-31 00:45:00,
2013-12-30 19:50:00,16.1,11.3,30.28,NW,308,6.0,13.0,81,0.00,,,0.00,Wunderground v.1.15,2013-12-31 00:50:00,
2013-12-30 19:55:00,16.0,11.2,30.28,NW,307,6.0,13.0,81,0.00,,,0.00,Wunderground v.1.15,2013-12-31 00:55:00,
2013-12-30 20:01:00,16.0,11.5,30.28,NW,310,8.0,11.0,82,0.00,,,0.00,Wunderground v.1.15,2013-12-31 01:01:00,
2013-12-30 20:10:00,15.7,11.2,30.29,North,4,8.0,9.0,82,0.00,,,0.00,Wunderground v.1.15,2013-12-31 01:10:00,
2013-12-30 20:20:00,15.6,11.1,30.29,NW,310,9.0,10.0,82,0.00,,,0.00,Wunderground v.1.15,2013-12-31 01:20:00,
2013-12-30 20:25:00,15.5,10.7,30.29,NW,319,9.0,10.0,81,0.00,,,0.00,Wunderground v.1.15,2013-12-31 01:25:00,
2013-12-30 20:30:00,15.5,10.7,30.29,NW,315,8.0,8.0,81,0.00,,,0.00,Wunderground v.1.15,2013-12-31 01:30:00,
2013-12-30 20:35:00,15.3,10.5,30.29,WNW,297,8.0,10.0,81,0.00,,,0.00,Wunderground v.1.15,2013-12-31 01:35:00,
2013-12-30 20:40:00,15.3,10.5,30.29,SW,218,9.0,13.0,81,0.00,,,0.00,Wunderground v.1.15,2013-12-31 01:40:00,
2013-12-30 20:50:00,15.1,10.3,30.28,NW,315,9.0,13.0,81,0.00,,,0.00,Wunderground v.1.15,2013-12-31 01:50:00,
2013-12-30 20:55:00,15.2,10.4,30.28,NW,325,9.0,13.0,81,0.00,,,0.00,Wunderground v.1.15,2013-12-31 01:55:00,
2013-12-30 21:05:00,15.2,10.4,30.28,SSW,197,7.0,13.0,81,0.00,,,0.00,Wunderground v.1.15,2013-12-31 02:05:00,
2013-12-30 21:10:00,15.0,9.9,30.28,NW,322,7.0,13.0,80,0.00,,,0.00,Wunderground v.1.15,2013-12-31 02:10:00,
2013-12-30 21:15:00,15.0,9.9,30.27,NW,313,8.0,13.0,80,0.00,,,0.00,Wunderground v.1.15,2013-12-31 02:15:00,
2013-12-30 21:25:00,15.0,9.9,30.28,NW,319,8.0,13.0,80,0.00,,,0.00,Wunderground v.1.15,2013-12-31 02:25:00,
2013-12-30 21:30:00,15.1,10.3,30.28,NW,319,8.0,8.0,81,0.00,,,0.00,Wunderground v.1.15,2013-12-31 02:30:00,
2013-12-30 21:35:00,15.1,10.3,30.27,SE,136,7.0,13.0,81,0.00,,,0.00,Wunderground v.1.15,2013-12-31 02:35:00,
2013-12-30 21:40:00,15.0,9.9,30.27,North,11,6.0,6.0,80,0.00,,,0.00,Wunderground v.1.15,2013-12-31 02:40:00,
2013-12-30 21:45:00,15.0,9.9,30.27,NNW,341,7.0,7.0,80,0.00,,,0.00,Wunderground v.1.15,2013-12-31 02:45:00,
2013-12-30 21:50:00,15.0,9.9,30.27,ENE,60,7.0,13.0,80,0.00,,,0.00,Wunderground v.1.15,2013-12-31 02:50:00,
2013-12-30 22:01:00,14.9,9.3,30.27,East,96,8.0,8.0,78,0.00,,,0.00,Wunderground v.1.15,2013-12-31 03:01:00,
2013-12-30 22:10:00,14.7,8.8,30.27,NNW,340,10.0,12.0,77,0.00,,,0.00,Wunderground v.1.15,2013-12-31 03:10:00,
2013-12-30 22:15:00,14.6,9.3,30.27,West,272,10.0,10.0,79,0.00,,,0.00,Wunderground v.1.15,2013-12-31 03:15:00,
2013-12-30 22:20:00,14.5,9.7,30.27,NW,314,9.0,12.0,81,0.00,,,0.00,Wunderground v.1.15,2013-12-31 03:20:00,
2013-12-30 22:25:00,14.2,9.7,30.27,SE,140,9.0,9.0,82,0.00,,,0.00,Wunderground v.1.15,2013-12-31 03:25:00,
2013-12-30 22:35:00,13.9,9.1,30.27,NW,316,7.0,13.0,81,0.00,,,0.00,Wunderground v.1.15,2013-12-31 03:35:00,
2013-12-30 22:40:00,13.8,9.3,30.27,NW,326,8.0,13.0,82,0.00,,,0.00,Wunderground v.1.15,2013-12-31 03:40:00,
2013-12-30 22:50:00,13.6,9.7,30.27,NNW,327,8.0,13.0,84,0.00,,,0.00,Wunderground v.1.15,2013-12-31 03:50:00,
2013-12-30 22:55:00,13.5,9.6,30.27,NW,324,8.0,13.0,84,0.00,,,0.00,Wunderground v.1.15,2013-12-31 03:55:00,
2013-12-30 23:00:00,13.5,9.8,30.27,East,98,8.0,8.0,85,0.00,,,0.00,Wunderground v.1.15,2013-12-31 04:00:00,
2013-12-30 23:10:00,13.4,9.7,30.28,NNW,333,9.0,13.0,85,0.00,,,0.00,Wunderground v.1.15,2013-12-31 04:10:00,
2013-12-30 23:15:00,13.4,9.7,30.28,NE,51,10.0,13.0,85,0.00,,,0.00,Wunderground v.1.15,2013-12-31 04:15:00,
2013-12-30 23:20:00,13.4,10.0,30.27,East,85,8.0,8.0,86,0.00,,,0.00,Wunderground v.1.15,2013-12-31 04:20:00,
2013-12-30 23:25:00,13.4,10.0,30.27,NNW,333,7.0,13.0,86,0.00,,,0.00,Wunderground v.1.15,2013-12-31 04:25:00,
2013-12-30 23:30:00,13.4,10.0,30.27,NW,319,6.0,13.0,86,0.00,,,0.00,Wunderground v.1.15,2013-12-31 04:30:00,
2013-12-30 23:35:00,13.5,10.4,30.27,NNW,329,6.0,13.0,87,0.00,,,0.00,Wunderground v.1.15,2013-12-31 04:35:00,
2013-12-30 23:45:00,13.5,10.4,30.27,North,349,6.0,13.0,87,0.00,,,0.00,Wunderground v.1.15,2013-12-31 04:45:00,
2013-12-30 23:55:00,13.5,10.4,30.27,NE,50,7.0,13.0,87,0.00,,,0.00,Wunderground v.1.15,2013-12-31 04:55:00,